Time;durP1;ratioP1;P1;durP2;ratioP2;P2;SDS_P1;SDS_P2;PMS_P1;PMS_P2;Temp;Humidity;BMP_temperature;BMP_pressure;BME280_temperature;BME280_humidity;BME280_pressure;Samples;Min_cycle;Max_cycle;Signal;HPM_P1;HPM_P2
2023/01/31 00:02:00;;;;;;;21.75;11.57;;;;;;;4.35;71.89;101649.13;4184490;28;20039;-68
2023/01/31 00:04:06;;;;;;;22.20;10.18;;;;;;;4.33;71.59;101645.53;4187316;28;20037;-68
2023/01/31 00:06:14;;;;;;;21.42;10.32;;;;;;;4.30;71.90;101647.94;4174731;28;20056;-68
2023/01/31 00:08:17;;;;;;;22.75;9.38;;;;;;;4.36;71.59;101639.69;4185294;28;20128;-69
2023/01/31 00:10:20;;;;;;;20.30;9.10;;;;;;;4.33;71.30;101644.66;4189337;28;20457;-68
2023/01/31 00:12:23;;;;;;;21.10;9.00;;;;;;;4.32;71.63;101646.38;4187075;28;20087;-69
2023/01/31 00:14:27;;;;;;;20.05;9.40;;;;;;;4.30;71.44;101649.66;4190214;28;20556;-68
2023/01/31 00:16:30;;;;;;;25.38;12.00;;;;;;;4.36;71.52;101656.03;4190350;28;20506;-68
2023/01/31 00:18:33;;;;;;;21.50;10.00;;;;;;;4.34;71.41;101656.75;4182274;28;20091;-68
2023/01/31 00:20:36;;;;;;;24.85;10.88;;;;;;;4.28;71.34;101661.50;4183287;28;20036;-68
2023/01/31 00:22:39;;;;;;;25.40;10.23;;;;;;;4.28;71.58;101652.13;4183941;28;20060;-68
2023/01/31 00:24:42;;;;;;;61.00;14.13;;;;;;;4.28;71.45;101654.69;4184177;28;20431;-68
2023/01/31 00:26:45;;;;;;;20.40;10.02;;;;;;;4.31;71.26;101654.00;4193037;28;20056;-69
2023/01/31 00:28:49;;;;;;;17.73;8.38;;;;;;;4.35;71.49;101654.28;4188248;28;20122;-68
2023/01/31 00:30:54;;;;;;;17.30;8.48;;;;;;;4.32;71.12;101659.25;4176743;28;20041;-69
2023/01/31 00:32:59;;;;;;;20.17;8.85;;;;;;;4.32;71.32;101650.59;4187405;28;20575;-69
2023/01/31 00:35:02;;;;;;;17.55;8.65;;;;;;;4.31;70.98;101654.00;4181311;28;20037;-68
2023/01/31 00:37:04;;;;;;;18.85;7.80;;;;;;;4.32;71.57;101650.59;4186608;28;20036;-67
2023/01/31 00:39:08;;;;;;;19.25;8.95;;;;;;;4.33;70.92;101642.09;4174739;28;20509;-68
2023/01/31 00:41:11;;;;;;;17.33;8.32;;;;;;;4.30;70.93;101645.38;4181905;28;20032;-68
2023/01/31 00:43:15;;;;;;;18.23;8.52;;;;;;;4.35;70.81;101654.28;4182808;28;20120;-69
2023/01/31 00:45:18;;;;;;;15.27;8.13;;;;;;;4.40;70.81;101646.81;4188985;28;20456;-68
2023/01/31 00:47:23;;;;;;;20.33;8.23;;;;;;;4.43;70.57;101652.13;4188607;28;20048;-69
2023/01/31 00:49:25;;;;;;;19.17;7.47;;;;;;;4.36;70.45;101640.56;4188105;28;20082;-67
2023/01/31 00:51:28;;;;;;;15.48;7.35;;;;;;;4.39;70.43;101634.72;4187766;28;20045;-67
2023/01/31 00:53:31;;;;;;;17.60;9.07;;;;;;;4.40;70.33;101643.34;4179050;28;20049;-67
2023/01/31 00:55:35;;;;;;;15.80;7.57;;;;;;;4.41;70.25;101633.16;4182982;28;20041;-67
2023/01/31 00:57:38;;;;;;;19.13;7.97;;;;;;;4.40;70.44;101640.78;4182441;28;20040;-67
2023/01/31 00:59:41;;;;;;;28.15;9.30;;;;;;;4.31;70.50;101635.97;4189498;28;20043;-68
2023/01/31 01:01:44;;;;;;;19.95;7.68;;;;;;;4.35;70.28;101638.81;4184544;28;20030;-67
2023/01/31 01:03:49;;;;;;;23.00;8.07;;;;;;;4.40;70.62;101645.94;4185774;28;20130;-67
2023/01/31 01:05:52;;;;;;;16.92;7.97;;;;;;;4.36;70.32;101638.00;4178516;28;20044;-67
2023/01/31 01:07:55;;;;;;;21.92;8.60;;;;;;;4.34;70.35;101639.59;4164040;28;20041;-67
2023/01/31 01:09:58;;;;;;;26.38;8.32;;;;;;;4.31;70.14;101641.13;4182703;28;20037;-67
2023/01/31 01:12:01;;;;;;;20.80;8.65;;;;;;;4.30;70.16;101634.19;4184268;28;20057;-66
2023/01/31 01:14:04;;;;;;;17.42;7.97;;;;;;;4.30;69.99;101644.50;4188594;28;20040;-67
2023/01/31 01:16:08;;;;;;;15.55;7.53;;;;;;;4.27;70.04;101636.59;4194828;28;20032;-67
2023/01/31 01:18:11;;;;;;;15.88;7.50;;;;;;;4.26;70.01;101637.38;4186477;28;20049;-67
2023/01/31 01:20:16;;;;;;;15.10;7.03;;;;;;;4.21;70.11;101638.81;4184478;28;20040;-67
2023/01/31 01:22:18;;;;;;;15.90;7.88;;;;;;;4.18;70.15;101640.38;4186034;28;20116;-67
2023/01/31 01:24:21;;;;;;;18.40;7.45;;;;;;;4.14;70.22;101633.28;4188033;28;20039;-67
2023/01/31 01:26:26;;;;;;;18.25;7.55;;;;;;;4.12;70.72;101639.16;4192033;28;20033;-66
2023/01/31 01:28:29;;;;;;;12.85;6.57;;;;;;;4.11;70.41;101638.25;4186781;28;20048;-67
2023/01/31 01:30:32;;;;;;;17.58;8.23;;;;;;;4.11;70.28;101645.97;4182711;28;20067;-67
2023/01/31 01:32:35;;;;;;;18.00;7.38;;;;;;;4.06;70.20;101643.91;4181760;28;20063;-67
2023/01/31 01:34:38;;;;;;;20.83;9.65;;;;;;;4.03;70.48;101644.66;4182696;28;20041;-66
2023/01/31 01:36:43;;;;;;;18.83;9.40;;;;;;;4.08;70.81;101643.22;4186244;28;20044;-66
2023/01/31 01:38:50;;;;;;;20.58;8.82;;;;;;;4.07;70.73;101649.16;4186273;28;20072;-67
2023/01/31 01:40:53;;;;;;;16.30;7.78;;;;;;;4.07;70.63;101641.44;4190958;28;20063;-67
2023/01/31 01:42:57;;;;;;;18.25;9.15;;;;;;;4.06;70.48;101649.97;4193865;28;20628;-67
2023/01/31 01:45:01;;;;;;;23.13;7.78;;;;;;;4.00;70.41;101650.50;4182741;28;20035;-67
2023/01/31 01:47:04;;;;;;;21.70;8.40;;;;;;;4.00;70.63;101649.56;4183304;28;20582;-67
2023/01/31 01:49:17;;;;;;;16.92;7.72;;;;;;;4.02;70.45;101651.47;4172794;28;20052;-66
2023/01/31 01:51:20;;;;;;;16.17;7.07;;;;;;;4.04;70.33;101656.69;4174951;28;20041;-67
2023/01/31 01:53:28;;;;;;;21.15;7.97;;;;;;;4.07;70.54;101653.41;4177274;28;20040;-67
2023/01/31 01:55:37;;;;;;;15.45;7.70;;;;;;;4.02;70.54;101658.31;4187312;28;20071;-67
2023/01/31 01:57:43;;;;;;;18.30;6.97;;;;;;;4.11;70.22;101666.56;4192930;28;20036;-67
2023/01/31 01:59:50;;;;;;;18.95;8.05;;;;;;;4.15;70.03;101668.53;4183711;28;20098;-67
2023/01/31 02:01:55;;;;;;;14.80;7.75;;;;;;;4.11;70.34;101668.25;4172773;28;20037;-67
2023/01/31 02:03:58;;;;;;;20.80;8.50;;;;;;;4.08;70.15;101668.94;4185977;28;20067;-67
2023/01/31 02:06:05;;;;;;;21.73;7.70;;;;;;;4.10;70.08;101669.91;4186160;28;20045;-67
2023/01/31 02:08:09;;;;;;;18.77;9.20;;;;;;;4.11;69.83;101669.13;4193908;28;20036;-68
2023/01/31 02:10:19;;;;;;;16.05;7.93;;;;;;;4.15;69.87;101672.78;4191555;28;20132;-67
2023/01/31 02:12:22;;;;;;;14.98;7.40;;;;;;;4.19;70.07;101673.06;4182878;28;20036;-67
2023/01/31 02:14:27;;;;;;;14.60;6.82;;;;;;;4.20;69.57;101668.78;4184211;28;20078;-67
2023/01/31 02:16:29;;;;;;;17.23;7.18;;;;;;;4.26;69.63;101668.28;4187325;28;20502;-67
2023/01/31 02:18:32;;;;;;;16.90;7.35;;;;;;;4.21;68.81;101664.56;4190401;28;20452;-67
2023/01/31 02:21:00;;;;;;;13.70;5.65;;;;;;;4.18;68.55;101668.69;4191343;28;20514;-67
2023/01/31 02:23:33;;;;;;;13.43;5.13;;;;;;;4.29;68.75;101669.38;4183409;28;20041;-67
2023/01/31 02:26:07;;;;;;;17.33;6.22;;;;;;;4.35;68.18;101671.38;4179772;28;20057;-67
2023/01/31 02:28:51;;;;;;;17.13;6.43;;;;;;;4.32;67.85;101660.91;4185632;28;20032;-67
2023/01/31 02:31:35;;;;;;;13.07;4.75;;;;;;;4.41;67.57;101665.72;4186287;28;20272;-67
2023/01/31 02:33:44;;;;;;;18.48;6.45;;;;;;;4.40;67.74;101666.53;4189084;28;20040;-67
2023/01/31 02:35:55;;;;;;;14.10;5.03;;;;;;;4.40;67.68;101664.84;4193994;28;20608;-67
2023/01/31 02:38:09;;;;;;;15.85;5.88;;;;;;;4.41;67.40;101656.31;4202261;28;20434;-67
2023/01/31 02:40:19;;;;;;;16.58;5.63;;;;;;;4.43;67.55;101656.41;4187263;28;20056;-68
2023/01/31 02:42:33;;;;;;;17.05;5.40;;;;;;;4.43;67.24;101665.00;4185205;28;20502;-67
2023/01/31 02:45:00;;;;;;;17.98;6.43;;;;;;;4.42;67.11;101662.34;4177580;28;20041;-67
2023/01/31 02:47:10;;;;;;;14.90;5.53;;;;;;;4.33;67.03;101660.13;4189879;28;20449;-67
2023/01/31 02:49:33;;;;;;;14.65;5.50;;;;;;;4.36;67.60;101666.31;4177064;28;20045;-67
2023/01/31 02:52:15;;;;;;;20.00;5.85;;;;;;;4.36;67.25;101655.16;4168574;28;20558;-68
2023/01/31 02:54:19;;;;;;;11.82;5.07;;;;;;;4.32;67.39;101659.25;4189382;28;20107;-67
2023/01/31 02:56:27;;;;;;;9.98;4.70;;;;;;;4.25;67.35;101657.09;4192245;28;20530;-67
2023/01/31 02:58:35;;;;;;;12.90;5.82;;;;;;;4.15;67.65;101655.66;4193566;28;20044;-67
2023/01/31 03:00:41;;;;;;;18.35;5.88;;;;;;;4.13;67.67;101657.25;4182066;28;20493;-67
2023/01/31 03:02:47;;;;;;;19.67;5.80;;;;;;;4.14;67.87;101658.13;4183695;28;20041;-67
2023/01/31 03:04:52;;;;;;;11.48;5.18;;;;;;;4.10;67.58;101657.06;4199699;28;20041;-67
2023/01/31 03:07:02;;;;;;;11.77;5.20;;;;;;;4.15;67.62;101654.78;4191199;28;20454;-67
2023/01/31 03:09:20;;;;;;;14.73;5.75;;;;;;;4.09;67.67;101657.88;4194257;28;20533;-67
2023/01/31 03:11:33;;;;;;;19.27;6.13;;;;;;;4.09;67.66;101659.53;4188320;28;20041;-68
2023/01/31 03:13:48;;;;;;;23.30;6.28;;;;;;;4.02;67.75;101660.88;4184370;28;20067;-67
2023/01/31 03:18:24;;;;;;;16.42;6.22;;;;;;;3.89;68.36;101661.81;4173198;28;20127;-67
2023/01/31 03:20:36;;;;;;;20.50;5.88;;;;;;;3.91;68.56;101657.63;4186343;28;20044;-67
2023/01/31 03:22:43;;;;;;;13.38;6.15;;;;;;;3.86;68.57;101661.63;4186451;28;20498;-67
2023/01/31 03:24:49;;;;;;;17.52;6.03;;;;;;;3.82;68.77;101664.81;4182532;28;20132;-67
2023/01/31 03:26:57;;;;;;;13.57;5.75;;;;;;;3.75;68.38;101658.41;4187276;28;20119;-67
2023/01/31 03:29:03;;;;;;;13.95;6.13;;;;;;;3.73;69.02;101670.28;4170046;28;20041;-67
2023/01/31 03:31:13;;;;;;;18.08;6.60;;;;;;;3.68;68.98;101669.13;4192987;28;20045;-67
2023/01/31 03:33:20;;;;;;;20.15;6.72;;;;;;;3.65;69.09;101671.47;4185263;28;20036;-67
2023/01/31 03:35:26;;;;;;;10.73;5.40;;;;;;;3.61;69.09;101672.09;4168177;28;20033;-66
2023/01/31 03:37:37;;;;;;;12.27;5.18;;;;;;;3.59;69.11;101673.66;4190413;28;20415;-66
2023/01/31 03:39:54;;;;;;;13.48;4.80;;;;;;;3.64;69.38;101669.72;4175592;28;20033;-67
2023/01/31 03:42:06;;;;;;;15.23;4.90;;;;;;;3.64;69.24;101680.00;4181809;28;20041;-67
2023/01/31 03:44:15;;;;;;;13.55;4.90;;;;;;;3.66;69.03;101679.31;4186086;28;20079;-67
2023/01/31 03:46:23;;;;;;;17.02;5.80;;;;;;;3.56;68.63;101681.19;4174583;28;20040;-67
2023/01/31 03:48:31;;;;;;;21.85;9.35;;;;;;;3.42;68.94;101681.22;4169740;28;20060;-67
2023/01/31 03:50:37;;;;;;;13.07;5.60;;;;;;;3.32;69.56;101681.44;4191880;28;20044;-67
2023/01/31 03:52:49;;;;;;;16.33;6.32;;;;;;;3.30;69.27;101686.50;4192624;28;20087;-68
2023/01/31 03:54:56;;;;;;;13.57;5.70;;;;;;;3.24;70.00;101690.34;4179228;28;20083;-67
2023/01/31 03:57:05;;;;;;;17.10;7.75;;;;;;;3.11;70.47;101697.28;4194467;28;20086;-67
2023/01/31 03:59:11;;;;;;;14.95;7.70;;;;;;;3.07;69.96;101699.56;4184858;28;20124;-67
2023/01/31 04:01:16;;;;;;;15.30;6.50;;;;;;;3.09;70.44;101697.97;4190854;28;20056;-68
2023/01/31 04:03:27;;;;;;;18.73;7.55;;;;;;;3.07;69.91;101694.41;4192231;28;20419;-67
2023/01/31 04:05:31;;;;;;;19.05;6.47;;;;;;;3.04;70.36;101700.22;4193454;28;20446;-67
2023/01/31 04:07:36;;;;;;;14.88;6.80;;;;;;;3.03;70.78;101702.72;4182658;28;20115;-67
2023/01/31 04:09:41;;;;;;;16.50;6.88;;;;;;;3.03;70.56;101695.88;4183712;28;20059;-67
2023/01/31 04:11:48;;;;;;;14.88;6.60;;;;;;;3.09;70.44;101693.69;4188051;28;20159;-67
2023/01/31 04:13:51;;;;;;;12.48;6.00;;;;;;;3.08;69.75;101698.72;4191022;28;20040;-67
2023/01/31 04:15:54;;;;;;;16.77;6.50;;;;;;;3.16;69.60;101695.00;4192727;28;20037;-67
2023/01/31 04:17:57;;;;;;;17.58;7.25;;;;;;;3.20;69.14;101691.84;4180995;28;20123;-67
2023/01/31 04:20:00;;;;;;;12.02;6.22;;;;;;;3.19;69.41;101691.75;4182042;28;20486;-67
2023/01/31 04:22:03;;;;;;;19.80;6.28;;;;;;;3.17;69.74;101698.44;4181374;28;20091;-67
2023/01/31 04:24:08;;;;;;;17.52;6.53;;;;;;;3.21;69.59;101703.00;4182197;28;20125;-67
2023/01/31 04:26:12;;;;;;;16.60;6.25;;;;;;;3.21;69.39;101703.88;4187858;28;20472;-67
2023/01/31 04:28:15;;;;;;;15.38;8.48;;;;;;;3.22;69.23;101708.22;4185476;28;20512;-67
2023/01/31 04:30:18;;;;;;;18.10;6.82;;;;;;;3.21;69.38;101697.84;4185290;28;20037;-67
2023/01/31 04:32:21;;;;;;;15.90;6.05;;;;;;;3.27;69.34;101700.81;4184122;28;20074;-67
2023/01/31 04:34:24;;;;;;;16.10;7.25;;;;;;;3.28;69.46;101697.44;4191024;28;20029;-67
2023/01/31 04:36:27;;;;;;;18.10;7.68;;;;;;;3.17;69.30;101706.16;4188870;28;20090;-67
2023/01/31 04:38:30;;;;;;;14.07;6.70;;;;;;;3.16;69.70;101699.25;4185819;28;20044;-68
2023/01/31 04:40:33;;;;;;;15.65;6.97;;;;;;;3.19;69.46;101699.44;4183307;28;20041;-68
2023/01/31 04:42:37;;;;;;;18.33;7.63;;;;;;;3.15;69.87;101700.91;4182895;28;20091;-68
2023/01/31 04:44:40;;;;;;;18.52;8.10;;;;;;;3.00;69.66;101699.94;4187375;28;20127;-68
2023/01/31 04:46:45;;;;;;;15.27;7.65;;;;;;;2.94;70.43;101692.72;4190741;28;20041;-69
2023/01/31 04:48:48;;;;;;;;;;;;;;;2.87;70.67;101695.69;4194993;28;20106;-69
2023/01/31 04:50:51;;;;;;;14.05;7.53;;;;;;;2.81;70.44;101695.28;4191828;28;19920;-69
2023/01/31 04:52:54;;;;;;;16.83;7.50;;;;;;;2.82;70.95;101697.03;4186215;28;20033;-68
2023/01/31 04:54:57;;;;;;;19.52;7.63;;;;;;;2.81;71.22;101695.28;4187137;28;20061;-70
2023/01/31 04:57:00;;;;;;;16.40;9.93;;;;;;;2.78;71.11;101695.97;4192835;28;20391;-69
2023/01/31 04:59:04;;;;;;;18.08;8.55;;;;;;;2.81;70.78;101685.00;4193552;28;20086;-69
2023/01/31 05:01:08;;;;;;;13.25;7.82;;;;;;;2.78;70.86;101686.56;4181938;28;20141;-69
2023/01/31 05:03:11;;;;;;;14.55;7.93;;;;;;;2.77;70.93;101677.13;4194762;28;20036;-68
2023/01/31 05:05:13;;;;;;;20.27;8.05;;;;;;;2.79;71.28;101680.66;4185887;28;20040;-70
2023/01/31 05:07:16;;;;;;;17.42;8.27;;;;;;;2.75;71.12;101683.81;4183279;28;20119;-69
2023/01/31 05:09:21;;;;;;;15.65;8.43;;;;;;;2.73;70.92;101680.25;4192652;28;20603;-66
2023/01/31 05:11:24;;;;;;;14.88;8.10;;;;;;;2.81;71.40;101682.44;4186217;28;20033;-66
2023/01/31 05:13:28;;;;;;;17.52;8.18;;;;;;;2.78;70.54;101681.44;4187436;28;20036;-66
2023/01/31 05:15:33;;;;;;;19.08;8.40;;;;;;;2.77;70.94;101684.81;4191537;28;20544;-65
2023/01/31 05:17:35;;;;;;;17.60;7.72;;;;;;;2.77;71.39;101682.25;4184718;28;20049;-66
2023/01/31 05:19:38;;;;;;;22.63;8.70;;;;;;;2.78;70.36;101676.31;4188156;28;20122;-66
2023/01/31 05:21:54;;;;;;;21.48;8.32;;;;;;;2.78;70.74;101680.56;4195725;28;20040;-66
2023/01/31 05:23:57;;;;;;;15.57;8.45;;;;;;;2.79;70.88;101680.66;4188249;28;20041;-65
2023/01/31 05:26:00;;;;;;;18.77;8.18;;;;;;;2.85;70.38;101677.59;4196796;28;20033;-66
2023/01/31 05:28:04;;;;;;;16.25;9.50;;;;;;;2.92;70.82;101686.56;4184681;28;20051;-65
2023/01/31 05:30:08;;;;;;;17.83;9.50;;;;;;;2.92;70.47;101679.78;4189548;28;20053;-66
2023/01/31 05:32:15;;;;;;;18.40;8.63;;;;;;;2.98;70.77;101679.28;4191603;28;20044;-65
2023/01/31 05:34:18;;;;;;;27.23;9.43;;;;;;;2.95;69.94;101684.25;4184107;28;20040;-66
2023/01/31 05:36:21;;;;;;;21.63;9.02;;;;;;;3.00;70.50;101674.25;4193115;28;20526;-66
2023/01/31 05:38:23;;;;;;;21.65;8.50;;;;;;;3.01;70.16;101674.34;4187300;28;20098;-66
2023/01/31 05:40:26;;;;;;;20.65;8.88;;;;;;;3.04;70.67;101677.13;4188689;28;20044;-66
2023/01/31 05:42:29;;;;;;;19.77;8.63;;;;;;;3.04;69.82;101682.25;4191817;28;20060;-65
2023/01/31 05:44:32;;;;;;;21.17;9.70;;;;;;;3.03;69.93;101683.03;4194379;28;20533;-66
2023/01/31 05:46:35;;;;;;;19.17;9.63;;;;;;;2.99;70.40;101683.63;4178534;28;20052;-65
2023/01/31 05:48:39;;;;;;;19.95;9.23;;;;;;;3.03;70.22;101693.31;4187817;28;20037;-65
2023/01/31 05:50:42;;;;;;;16.63;8.38;;;;;;;3.05;69.91;101695.97;4169452;28;20563;-65
2023/01/31 05:52:50;;;;;;;19.33;8.43;;;;;;;3.03;69.93;101680.47;4188611;28;20037;-65
2023/01/31 05:54:53;;;;;;;23.58;10.50;;;;;;;2.95;69.58;101684.25;4186623;28;20059;-66
2023/01/31 05:56:56;;;;;;;17.20;8.80;;;;;;;2.89;70.47;101681.25;4192965;28;20584;-66
2023/01/31 05:59:01;;;;;;;16.45;8.32;;;;;;;2.90;70.39;101680.47;4194734;28;20048;-66
2023/01/31 06:01:04;;;;;;;16.63;9.00;;;;;;;2.86;70.28;101678.47;4183004;28;20102;-66
2023/01/31 06:03:08;;;;;;;19.80;9.40;;;;;;;2.89;71.03;101678.69;4185822;28;20487;-66
2023/01/31 06:05:12;;;;;;;23.33;10.18;;;;;;;2.81;70.91;101682.44;4202809;28;20077;-66
2023/01/31 06:07:15;;;;;;;24.52;10.68;;;;;;;2.73;70.97;101677.69;4189686;28;20037;-66
2023/01/31 06:09:18;;;;;;;22.80;10.30;;;;;;;2.69;71.86;101695.38;4192091;28;20040;-66
2023/01/31 06:11:21;;;;;;;23.75;10.38;;;;;;;2.69;71.27;101691.13;4193984;28;20040;-65
2023/01/31 06:13:24;;;;;;;21.48;10.05;;;;;;;2.66;72.04;101701.19;4194738;28;20032;-65
2023/01/31 06:15:27;;;;;;;21.75;10.60;;;;;;;2.74;71.76;101694.84;4183936;28;20044;-66
2023/01/31 06:17:29;;;;;;;22.25;9.90;;;;;;;2.85;71.64;101700.72;4186694;28;20045;-65
2023/01/31 06:19:33;;;;;;;22.00;10.60;;;;;;;2.84;72.07;101705.75;4188440;28;20074;-66
2023/01/31 06:21:37;;;;;;;23.35;11.85;;;;;;;2.82;71.30;101705.66;4192800;28;20588;-66
2023/01/31 06:23:40;;;;;;;17.83;10.55;;;;;;;2.82;71.92;101700.53;4194850;28;20474;-66
2023/01/31 06:25:43;;;;;;;24.10;11.27;;;;;;;2.75;71.54;101708.59;4196759;28;20098;-65
2023/01/31 06:27:46;;;;;;;20.48;10.65;;;;;;;2.64;72.20;101695.03;4188455;28;20049;-66
2023/01/31 06:29:49;;;;;;;24.60;12.57;;;;;;;2.58;72.37;101692.94;4183391;28;20108;-67
2023/01/31 06:31:53;;;;;;;24.35;12.73;;;;;;;2.59;72.73;101697.31;4186610;28;20124;-68
2023/01/31 06:33:56;;;;;;;24.25;10.90;;;;;;;2.73;72.88;101698.25;4190017;28;20048;-67
2023/01/31 06:35:59;;;;;;;23.17;11.70;;;;;;;2.78;72.66;101696.84;4192186;28;20059;-68
2023/01/31 06:38:03;;;;;;;21.67;11.82;;;;;;;2.90;72.01;101690.75;4188927;28;20114;-66
2023/01/31 06:40:07;;;;;;;24.65;11.52;;;;;;;3.00;72.25;101687.97;4189048;28;20440;-69
2023/01/31 06:42:09;;;;;;;22.60;11.13;;;;;;;3.09;71.92;101691.13;4184985;28;20552;-68
2023/01/31 06:44:12;;;;;;;26.63;11.80;;;;;;;3.00;71.65;101700.81;4187066;28;20033;-66
2023/01/31 06:46:15;;;;;;;21.83;10.68;;;;;;;2.70;71.96;101698.03;4188914;28;20040;-66
2023/01/31 06:48:19;;;;;;;21.10;11.23;;;;;;;2.63;72.23;101706.13;4190547;28;20040;-66
2023/01/31 06:50:22;;;;;;;19.83;10.98;;;;;;;2.73;72.54;101697.31;4194528;28;20402;-65
2023/01/31 06:52:25;;;;;;;22.25;10.23;;;;;;;2.75;72.79;101695.78;4191552;28;20044;-65
2023/01/31 06:54:29;;;;;;;21.70;10.48;;;;;;;2.67;72.67;101696.94;4190402;28;20106;-67
2023/01/31 06:56:33;;;;;;;22.98;10.52;;;;;;;2.54;72.69;101700.34;4188423;28;20167;-66
2023/01/31 06:58:36;;;;;;;23.88;10.27;;;;;;;2.45;73.33;101705.75;4188620;28;20441;-65
2023/01/31 07:00:38;;;;;;;29.23;10.40;;;;;;;2.55;72.80;101709.84;4191368;28;20048;-65
2023/01/31 07:02:41;;;;;;;23.45;11.30;;;;;;;2.57;72.91;101709.16;4194875;28;20048;-66
2023/01/31 07:04:44;;;;;;;25.52;11.48;;;;;;;2.63;72.99;101701.00;4195248;28;20058;-65
2023/01/31 07:06:47;;;;;;;26.15;10.85;;;;;;;2.62;73.03;101710.34;4179946;28;20072;-65
2023/01/31 07:08:50;;;;;;;19.95;9.95;;;;;;;2.59;72.52;101714.41;4182472;28;20068;-65
2023/01/31 07:10:54;;;;;;;21.85;11.77;;;;;;;2.52;73.43;101718.22;4186518;28;20127;-66
2023/01/31 07:12:57;;;;;;;24.17;11.43;;;;;;;2.46;73.38;101717.81;4188756;28;20111;-65
2023/01/31 07:15:00;;;;;;;24.85;11.00;;;;;;;2.50;72.63;101714.69;4192197;28;20486;-66
2023/01/31 07:17:03;;;;;;;26.25;11.00;;;;;;;2.53;72.85;101720.00;4193880;28;20047;-65
2023/01/31 07:19:06;;;;;;;22.98;11.38;;;;;;;2.41;73.11;101721.72;4181414;28;20052;-65
2023/01/31 07:21:09;;;;;;;25.25;12.50;;;;;;;2.26;73.80;101722.50;4184197;28;20502;-65
2023/01/31 07:23:12;;;;;;;28.38;11.75;;;;;;;2.19;74.17;101735.69;4193964;28;20553;-66
2023/01/31 07:25:15;;;;;;;22.83;12.02;;;;;;;2.26;73.89;101736.97;4190310;28;20579;-65
2023/01/31 07:27:19;;;;;;;26.60;12.57;;;;;;;2.15;73.93;101741.41;4189896;28;20048;-65
2023/01/31 07:29:22;;;;;;;18.48;10.55;;;;;;;2.13;74.26;101745.50;4193837;28;20506;-66
2023/01/31 07:31:25;;;;;;;19.90;11.13;;;;;;;2.08;74.44;101745.19;4190077;28;20040;-65
2023/01/31 07:33:29;;;;;;;21.60;11.52;;;;;;;2.08;74.26;101746.88;4189842;28;20056;-66
2023/01/31 07:35:31;;;;;;;21.90;10.20;;;;;;;2.14;74.33;101757.56;4187485;28;20041;-66
2023/01/31 07:37:35;;;;;;;21.58;10.02;;;;;;;2.21;74.16;101756.31;4191295;28;20605;-65
2023/01/31 07:39:38;;;;;;;16.95;10.43;;;;;;;2.08;73.66;101754.56;4184868;28;20037;-65
2023/01/31 07:41:40;;;;;;;16.50;9.93;;;;;;;2.08;74.20;101760.59;4193765;28;20044;-66
2023/01/31 07:43:44;;;;;;;23.02;10.10;;;;;;;2.13;74.42;101765.16;4194932;28;20051;-66
2023/01/31 07:45:47;;;;;;;20.30;10.65;;;;;;;2.13;73.66;101767.72;4181209;28;20047;-66
2023/01/31 07:47:50;;;;;;;21.60;10.43;;;;;;;2.18;73.67;101774.06;4186522;28;20114;-65
2023/01/31 07:49:53;;;;;;;20.55;10.55;;;;;;;2.28;73.91;101761.09;4185431;28;20553;-66
2023/01/31 07:51:56;;;;;;;21.80;10.18;;;;;;;2.35;73.34;101768.44;4188251;28;20033;-66
2023/01/31 07:53:59;;;;;;;20.98;10.70;;;;;;;2.33;73.17;101762.28;4189263;28;20047;-66
2023/01/31 07:56:06;;;;;;;25.55;10.85;;;;;;;2.37;73.27;101774.53;4193739;28;20585;-66
2023/01/31 07:58:09;;;;;;;22.30;10.43;;;;;;;2.39;73.13;101772.97;4186246;28;20044;-66
2023/01/31 08:04:52;;;;;;;28.92;13.15;;;;;;;2.47;73.70;101754.63;4178850;28;20060;-67
2023/01/31 08:06:55;;;;;;;27.80;13.68;;;;;;;2.54;73.56;101756.81;4192943;28;20036;-65
2023/01/31 08:09:00;;;;;;;24.95;10.95;;;;;;;2.55;73.76;101758.63;4186702;28;20044;-66
2023/01/31 08:11:04;;;;;;;21.08;11.68;;;;;;;2.66;72.95;101761.91;4183420;28;20045;-66
2023/01/31 08:13:09;;;;;;;28.75;12.10;;;;;;;2.59;73.32;101766.63;4185246;28;20041;-65
2023/01/31 08:15:14;;;;;;;28.80;11.32;;;;;;;2.66;73.39;101767.94;4187126;28;20056;-65
2023/01/31 08:17:17;;;;;;;23.23;11.10;;;;;;;2.77;72.76;101763.50;4191434;28;20142;-65
2023/01/31 08:19:20;;;;;;;26.55;10.98;;;;;;;2.76;73.29;101760.06;4191025;28;20091;-65
2023/01/31 08:21:22;;;;;;;20.50;9.55;;;;;;;2.83;73.25;101763.03;4182298;28;20836;-66
2023/01/31 08:23:27;;;;;;;20.08;10.02;;;;;;;2.92;73.36;101766.19;4188710;28;20044;-66
2023/01/31 08:25:30;;;;;;;19.63;8.82;;;;;;;3.12;72.92;101768.41;4191727;28;20120;-66
2023/01/31 08:27:33;;;;;;;19.95;9.57;;;;;;;3.24;73.05;101759.72;4193849;28;20059;-66
2023/01/31 08:29:36;;;;;;;19.77;8.80;;;;;;;3.29;72.16;101758.34;4196970;28;20082;-66
2023/01/31 08:31:41;;;;;;;20.58;8.85;;;;;;;3.46;72.15;101759.41;4184817;28;20444;-66
2023/01/31 08:33:45;;;;;;;15.15;7.68;;;;;;;3.56;71.85;101753.19;4186350;28;20048;-66
2023/01/31 08:35:48;;;;;;;19.63;9.05;;;;;;;3.65;71.57;101758.91;4192290;28;20037;-66
2023/01/31 08:37:51;;;;;;;17.77;7.82;;;;;;;3.75;71.52;101748.44;4188885;28;20122;-66
2023/01/31 08:40:00;;;;;;;20.95;8.20;;;;;;;3.82;71.09;101745.41;4196648;28;20055;-66
2023/01/31 08:42:03;;;;;;;17.63;7.80;;;;;;;3.78;70.43;101743.47;4172591;28;20041;-66
2023/01/31 08:44:06;;;;;;;17.05;8.07;;;;;;;3.80;70.88;101743.56;4186711;28;20048;-66
2023/01/31 08:46:09;;;;;;;18.58;8.32;;;;;;;3.66;70.42;101746.19;4188147;28;20036;-66
2023/01/31 08:48:13;;;;;;;19.75;8.95;;;;;;;3.67;71.14;101750.50;4191619;28;20119;-66
2023/01/31 08:50:17;;;;;;;23.63;8.05;;;;;;;3.78;70.80;101748.63;4194753;28;20409;-66
2023/01/31 08:52:34;;;;;;;22.42;8.32;;;;;;;3.66;70.74;101760.69;4191425;28;20114;-66
2023/01/31 08:54:37;;;;;;;20.45;8.27;;;;;;;3.69;70.58;101757.44;4184808;28;20037;-66
2023/01/31 08:56:39;;;;;;;18.00;8.98;;;;;;;3.72;71.24;101755.94;4188013;28;20059;-66
2023/01/31 08:58:44;;;;;;;25.15;9.75;;;;;;;3.79;70.51;101736.63;4191263;28;20456;-66
2023/01/31 09:00:47;;;;;;;17.40;8.18;;;;;;;3.87;71.04;101740.59;4194095;28;20029;-66
2023/01/31 09:02:54;;;;;;;23.05;9.07;;;;;;;3.94;71.03;101731.53;4195629;28;20115;-66
2023/01/31 09:05:03;;;;;;;21.85;9.57;;;;;;;3.87;70.63;101742.25;4190443;28;20047;-66
2023/01/31 09:07:06;;;;;;;20.60;9.82;;;;;;;3.96;70.99;101745.41;4191968;28;20037;-66
2023/01/31 09:09:09;;;;;;;24.35;9.05;;;;;;;4.02;71.19;101745.78;4189503;28;20048;-66
2023/01/31 09:11:15;;;;;;;17.83;9.38;;;;;;;4.05;70.68;101745.97;4192720;28;20040;-66
2023/01/31 09:13:19;;;;;;;18.70;8.27;;;;;;;4.00;70.51;101752.50;4195799;28;20094;-66
2023/01/31 09:15:22;;;;;;;19.27;8.60;;;;;;;3.88;70.66;101769.75;4186305;28;20512;-65
2023/01/31 09:17:25;;;;;;;19.17;8.80;;;;;;;3.87;71.07;101762.81;4185859;28;20039;-66
2023/01/31 09:19:29;;;;;;;22.73;8.88;;;;;;;3.90;71.28;101745.00;4191140;28;20040;-66
2023/01/31 09:21:33;;;;;;;22.42;10.05;;;;;;;3.83;71.43;101743.75;4192960;28;20379;-66
2023/01/31 09:23:36;;;;;;;19.25;8.43;;;;;;;3.75;71.54;101740.72;4195581;28;20118;-66
2023/01/31 09:25:43;;;;;;;22.55;9.27;;;;;;;3.80;71.47;101752.16;4190367;28;20572;-66
2023/01/31 09:27:52;;;;;;;19.17;9.48;;;;;;;3.81;71.42;101753.94;4184272;28;20059;-65
2023/01/31 09:29:55;;;;;;;25.75;10.80;;;;;;;3.80;71.51;101759.88;4186500;28;20534;-66
2023/01/31 09:31:58;;;;;;;24.55;11.63;;;;;;;3.88;71.67;101751.75;4190845;28;20033;-65
2023/01/31 09:34:01;;;;;;;22.08;9.98;;;;;;;3.91;70.94;101751.94;4187086;28;20074;-66
2023/01/31 09:36:06;;;;;;;20.13;9.68;;;;;;;3.92;71.42;101744.31;4180632;28;20515;-66
2023/01/31 09:38:10;;;;;;;;;;;;;;;4.01;71.08;101738.84;4183879;28;20052;-66
2023/01/31 09:40:23;;;;;;;23.60;10.13;;;;;;;4.04;71.08;101733.88;4187946;28;20444;-66
2023/01/31 09:42:31;;;;;;;23.15;9.18;;;;;;;4.19;70.86;101727.13;4191128;28;20040;-66
2023/01/31 09:44:38;;;;;;;20.80;10.57;;;;;;;4.18;70.61;101730.47;4191968;28;20456;-66
2023/01/31 09:46:47;;;;;;;21.33;9.30;;;;;;;4.15;70.65;101727.72;4187858;28;20459;-66
2023/01/31 09:48:54;;;;;;;18.60;9.07;;;;;;;4.25;70.81;101728.25;4182843;28;20041;-66
2023/01/31 09:50:59;;;;;;;22.15;9.85;;;;;;;4.24;70.80;101731.66;4185527;28;20041;-66